Minneapolis, Minnesota
Traffic Map
Current Weather Conditions
Minneapolis, Minnesota
Scattered Clouds
Scattered Clouds
68°
Feels Like: 68°
Wind Chill: 68° Ceiling: Unl
Heat Index: 68° Visibility: 10mi
Dew Point: 59° Wind: 9mph
Humidity: 73% Direction: 140° (SE)
Pressure: 29.87in Gusts: 0mph
Raw Report DataKMSP 250653Z 14008KT 10SM FEW130 SCT210 20/15 A2987 RMK AO2 SLP108 T02000150
Traffic Incident Summary
Active as of:
Severity:
Category:
InformationThere was an issue retrieving the traffic information for this location. Please try a different location or try again shortly.
Advertisements
Track Severe Weather on mobile